Time;durP1;ratioP1;P1;durP2;ratioP2;P2;SDS_P1;SDS_P2;PMS_P1;PMS_P2;Temp;Humidity;BMP_temperature;BMP_pressure;BME280_temperature;BME280_humidity;BME280_pressure;Samples;Min_cycle;Max_cycle;Signal;HPM_P1;HPM_P2
2022/08/29 00:01:03;;;;;;;8.43;4.60;;;;;;;9.80;100.00;163127.50;4990236;28;20042;-68
2022/08/29 00:03:29;;;;;;;11.80;6.30;;;;;;;9.73;100.00;163108.63;4990267;28;20397;-68
2022/08/29 00:05:54;;;;;;;6.78;4.28;;;;;;;9.63;100.00;163081.69;4990407;28;20034;-68
2022/08/29 00:08:19;;;;;;;13.70;4.18;;;;;;;9.45;100.00;163034.47;4991475;28;20478;-68
2022/08/29 00:10:45;;;;;;;5.35;4.18;;;;;;;9.33;100.00;163004.78;4990185;28;20406;-68
2022/08/29 00:13:13;;;;;;;5.55;4.95;;;;;;;9.18;100.00;162964.31;4991550;28;20030;-68
2022/08/29 00:15:40;;;;;;;5.70;4.25;;;;;;;9.17;100.00;162961.59;4989769;28;20042;-68
2022/08/29 00:18:06;;;;;;;9.20;4.30;;;;;;;9.13;100.00;162952.16;4991798;28;20061;-68
2022/08/29 00:20:34;;;;;;;6.35;5.43;;;;;;;9.14;100.00;162954.88;4989860;28;20501;-68
2022/08/29 00:22:59;;;;;;;8.15;5.05;;;;;;;9.19;100.00;162968.38;4991133;28;20029;-72
2022/08/29 00:25:25;;;;;;;5.22;4.72;;;;;;;9.21;100.00;162973.75;4990047;28;20039;-71
2022/08/29 00:27:51;;;;;;;9.20;5.65;;;;;;;9.27;100.00;162988.59;4991528;28;20030;-71
2022/08/29 00:30:19;;;;;;;8.80;6.85;;;;;;;9.31;100.00;162998.03;4989806;28;20067;-71
2022/08/29 00:32:44;;;;;;;9.47;5.70;;;;;;;9.34;100.00;163007.47;4991592;28;20367;-71
2022/08/29 00:35:19;;;;;;;5.43;4.65;;;;;;;9.38;100.00;163016.91;4990021;28;20045;-71
2022/08/29 00:37:44;;;;;;;4.32;3.03;;;;;;;9.39;100.00;163019.63;4990944;28;20501;-71
2022/08/29 00:40:14;;;;;;;8.30;4.15;;;;;;;9.38;100.00;163016.91;4989919;28;20069;-71
2022/08/29 00:42:40;;;;;;;5.32;4.78;;;;;;;9.30;100.00;162996.72;4991629;28;20022;-71
2022/08/29 00:45:08;;;;;;;8.73;6.28;;;;;;;9.33;100.00;163003.44;4989765;28;20406;-66
2022/08/29 00:47:38;;;;;;;9.48;6.03;;;;;;;9.31;100.00;162998.03;4991300;28;20401;-66
2022/08/29 00:50:06;;;;;;;7.78;5.40;;;;;;;9.29;100.00;162992.63;4990052;28;20132;-66
2022/08/29 00:52:45;;;;;;;16.88;5.50;;;;;;;9.19;100.00;162967.00;4990617;28;20027;-66
2022/08/29 00:55:20;;;;;;;8.30;4.85;;;;;;;9.21;100.00;162973.75;4989744;28;20050;-66
2022/08/29 00:57:51;;;;;;;7.82;5.22;;;;;;;9.17;100.00;162962.97;4991465;28;20034;-65
2022/08/29 01:00:17;;;;;;;5.90;4.88;;;;;;;9.17;100.00;162962.97;4989825;28;20045;-63
2022/08/29 01:02:42;;;;;;;17.17;6.88;;;;;;;9.17;100.00;162961.59;4990934;28;20034;-64
2022/08/29 01:05:10;;;;;;;8.48;4.13;;;;;;;9.16;100.00;162960.28;4989996;28;20605;-63
2022/08/29 01:07:37;;;;;;;12.77;6.00;;;;;;;9.12;100.00;162948.13;4990937;28;20545;-64
2022/08/29 01:10:04;;;;;;;6.93;4.90;;;;;;;9.12;100.00;162949.47;4989719;28;20058;-64
2022/08/29 01:12:30;;;;;;;5.95;4.68;;;;;;;9.12;100.00;162949.47;4991025;28;20027;-63
2022/08/29 01:15:01;;;;;;;10.55;5.15;;;;;;;9.07;100.00;162936.00;4989378;28;20394;-64
2022/08/29 01:17:32;;;;;;;11.95;7.10;;;;;;;9.03;100.00;162925.22;4992469;28;20045;-63
2022/08/29 01:20:18;;;;;;;6.93;4.65;;;;;;;9.08;100.00;162938.69;4993349;28;20038;-66
2022/08/29 01:22:59;;;;;;;6.28;3.92;;;;;;;9.07;100.00;162936.00;4993956;28;20034;-63
2022/08/29 01:25:27;;;;;;;5.03;4.53;;;;;;;9.03;100.00;162925.22;4993362;28;20041;-64
2022/08/29 01:28:08;;;;;;;4.20;3.80;;;;;;;8.98;100.00;162911.72;4994609;28;20093;-63
2022/08/29 01:30:34;;;;;;;7.05;5.03;;;;;;;8.96;100.00;162906.34;4992565;28;20061;-66
2022/08/29 01:32:59;;;;;;;7.28;5.53;;;;;;;8.94;100.00;162900.94;4994340;28;20026;-65
2022/08/29 01:35:27;;;;;;;5.22;4.05;;;;;;;8.85;100.00;162879.38;4992878;28;20069;-65
2022/08/29 01:37:53;;;;;;;206.30;14.55;;;;;;;8.84;100.00;162875.34;4994303;28;20429;-66
2022/08/29 01:40:18;;;;;;;7.28;2.78;;;;;;;8.76;100.00;162855.09;4993005;28;20038;-66
2022/08/29 01:42:44;;;;;;;39.58;5.30;;;;;;;8.68;100.00;162833.50;4994208;28;20026;-67
2022/08/29 01:45:10;;;;;;;16.05;4.45;;;;;;;8.65;100.00;162826.78;4992834;28;20391;-69
2022/08/29 01:47:36;;;;;;;70.55;10.55;;;;;;;8.57;100.00;162806.56;4993974;28;20050;-70
2022/08/29 01:50:09;;;;;;;28.25;6.00;;;;;;;8.53;100.00;162795.75;4992497;28;20514;-63
2022/08/29 01:52:34;;;;;;;93.43;7.47;;;;;;;8.50;100.00;162787.72;4993463;28;20157;-67
2022/08/29 01:55:00;;;;;;;14.65;5.03;;;;;;;8.46;100.00;162776.84;4992824;28;20228;-67
2022/08/29 01:57:25;;;;;;;5.00;4.60;;;;;;;8.44;100.00;162771.50;4994223;28;20018;-67
2022/08/29 01:59:51;;;;;;;4.78;4.38;;;;;;;8.50;100.00;162787.72;4992077;28;20523;-67
2022/08/29 02:02:20;;;;;;;5.50;4.57;;;;;;;8.56;100.00;162802.53;4993674;28;20037;-65
2022/08/29 02:04:47;;;;;;;6.00;5.40;;;;;;;8.61;100.00;162814.63;4992402;28;20042;-64
2022/08/29 02:07:16;;;;;;;6.45;4.15;;;;;;;8.67;100.00;162832.19;4993848;28;20029;-64
2022/08/29 02:09:42;;;;;;;9.57;4.25;;;;;;;8.74;100.00;162849.72;4991939;28;20456;-67
2022/08/29 02:12:08;;;;;;;4.18;3.88;;;;;;;8.77;100.00;162857.78;4994030;28;20029;-67
2022/08/29 02:14:34;;;;;;;4.85;4.32;;;;;;;8.81;100.00;162868.59;4991928;28;20057;-66
2022/08/29 02:17:04;;;;;;;5.78;5.00;;;;;;;8.86;100.00;162882.06;4993406;28;20489;-66
2022/08/29 02:19:31;;;;;;;8.85;7.10;;;;;;;8.91;100.00;162892.81;4992111;28;20568;-65
2022/08/29 02:21:56;;;;;;;9.43;6.65;;;;;;;8.97;100.00;162909.06;4993144;28;20026;-65
2022/08/29 02:24:22;;;;;;;10.38;6.57;;;;;;;8.96;100.00;162907.69;4992113;28;20118;-65
2022/08/29 02:26:47;;;;;;;6.68;5.88;;;;;;;8.96;100.00;162906.34;4993391;28;20152;-66
2022/08/29 02:29:13;;;;;;;10.80;8.23;;;;;;;8.97;100.00;162909.06;4990557;28;20045;-60
2022/08/29 02:31:39;;;;;;;8.02;5.72;;;;;;;8.96;100.00;162907.69;4993179;28;20034;-68
2022/08/29 02:34:06;;;;;;;15.45;7.07;;;;;;;8.96;100.00;162906.34;4992095;28;20093;-69
2022/08/29 02:36:32;;;;;;;8.82;5.45;;;;;;;8.86;100.00;162882.06;4992345;28;20466;-69
2022/08/29 02:38:57;;;;;;;10.95;8.23;;;;;;;8.81;100.00;162867.22;4992244;28;20035;-68
2022/08/29 02:41:23;;;;;;;10.20;7.70;;;;;;;8.80;100.00;162865.91;4993358;28;20038;-67
2022/08/29 02:43:48;;;;;;;5.85;5.30;;;;;;;8.79;100.00;162863.19;4990819;28;20022;-65
2022/08/29 02:46:16;;;;;;;7.85;5.55;;;;;;;8.79;100.00;162863.19;4993329;28;20023;-65
2022/08/29 02:48:42;;;;;;;7.57;6.65;;;;;;;8.83;100.00;162872.63;4991436;28;20034;-64
2022/08/29 02:51:08;;;;;;;9.38;6.43;;;;;;;8.88;100.00;162887.47;4992661;28;20084;-66
2022/08/29 02:53:33;;;;;;;10.32;6.40;;;;;;;8.97;100.00;162910.38;4992686;28;20493;-66
2022/08/29 02:55:58;;;;;;;12.82;6.45;;;;;;;9.04;100.00;162927.94;4991623;28;20050;-66
2022/08/29 02:58:24;;;;;;;6.45;5.82;;;;;;;9.07;100.00;162934.66;4992765;28;20035;-67
2022/08/29 03:00:50;;;;;;;10.00;5.47;;;;;;;9.04;100.00;162929.25;4991270;28;20405;-68
2022/08/29 03:03:16;;;;;;;8.60;5.40;;;;;;;9.03;100.00;162925.22;4992711;28;20081;-68
2022/08/29 03:05:41;;;;;;;6.72;4.95;;;;;;;9.00;100.00;162918.50;4990794;28;20069;-68
2022/08/29 03:08:12;;;;;;;6.15;5.47;;;;;;;8.94;100.00;162900.94;4992606;28;20047;-68
2022/08/29 03:10:38;;;;;;;11.75;5.57;;;;;;;8.92;100.00;162895.53;4991174;28;20061;-68
2022/08/29 03:13:03;;;;;;;8.98;5.32;;;;;;;8.88;100.00;162887.47;4992244;28;20026;-68
2022/08/29 03:15:29;;;;;;;10.35;5.82;;;;;;;8.82;100.00;162871.31;4990923;28;20121;-68
2022/08/29 03:17:55;;;;;;;6.32;5.20;;;;;;;8.78;100.00;162859.16;4992844;28;20041;-69
2022/08/29 03:20:23;;;;;;;11.88;6.22;;;;;;;8.75;100.00;162852.38;4990791;28;20498;-68
2022/08/29 03:22:49;;;;;;;10.90;7.13;;;;;;;8.74;100.00;162849.72;4992186;28;20027;-68
2022/08/29 03:25:15;;;;;;;12.88;7.28;;;;;;;8.76;100.00;162853.75;4991139;28;20045;-68
2022/08/29 03:27:41;;;;;;;15.45;6.65;;;;;;;8.74;100.00;162849.72;4992122;28;20040;-68
2022/08/29 03:30:09;;;;;;;7.00;6.38;;;;;;;8.73;100.00;162848.34;4990775;28;20402;-67
2022/08/29 03:32:35;;;;;;;8.68;6.97;;;;;;;8.74;100.00;162849.72;4991958;28;20084;-67
2022/08/29 03:35:00;;;;;;;10.68;5.03;;;;;;;8.75;100.00;162852.38;4990451;28;20510;-67
2022/08/29 03:37:26;;;;;;;9.93;5.95;;;;;;;8.75;100.00;162852.38;4992258;28;20371;-67
2022/08/29 03:39:52;;;;;;;9.93;6.47;;;;;;;8.75;100.00;162852.38;4990211;28;20053;-67
2022/08/29 03:42:17;;;;;;;11.35;6.85;;;;;;;8.78;100.00;162860.50;4991990;28;20045;-67
2022/08/29 03:44:43;;;;;;;8.23;6.57;;;;;;;8.79;100.00;162863.19;4990688;28;20179;-67
2022/08/29 03:47:08;;;;;;;9.95;5.93;;;;;;;8.87;100.00;162883.38;4992055;28;20023;-68
2022/08/29 03:49:34;;;;;;;6.40;5.55;;;;;;;8.94;100.00;162900.94;4990189;28;20050;-68
2022/08/29 03:51:59;;;;;;;7.65;6.93;;;;;;;8.98;100.00;162911.72;4991941;28;20109;-68
2022/08/29 03:54:25;;;;;;;10.88;7.65;;;;;;;9.05;100.00;162930.59;4990667;28;20042;-68
2022/08/29 03:56:50;;;;;;;8.07;5.72;;;;;;;9.09;100.00;162941.41;4991498;28;20039;-71
2022/08/29 03:59:17;;;;;;;9.30;7.05;;;;;;;9.10;100.00;162944.09;4990423;28;20043;-68
2022/08/29 04:01:42;;;;;;;12.55;7.32;;;;;;;9.10;100.00;162944.09;4991672;28;20114;-69
2022/08/29 04:05:05;;;;;;;7.97;6.78;;;;;;;9.09;100.00;162941.41;4989979;28;20050;-66
2022/08/29 04:06:54;;;;;;;11.60;7.28;;;;;;;9.13;100.00;162952.16;4991786;28;20030;-63
2022/08/29 04:09:19;;;;;;;10.52;6.22;;;;;;;9.11;100.00;162946.81;4990618;28;20453;-63
2022/08/29 04:11:44;;;;;;;9.15;6.32;;;;;;;9.10;100.00;162944.09;4989957;28;20026;-64
2022/08/29 04:14:10;;;;;;;7.25;5.82;;;;;;;9.12;100.00;162949.47;4989869;28;20042;-63
2022/08/29 04:16:35;;;;;;;9.18;5.63;;;;;;;9.11;100.00;162946.81;4991376;28;20030;-63
2022/08/29 04:19:00;;;;;;;8.20;6.15;;;;;;;9.12;100.00;162948.13;4990083;28;20143;-63
2022/08/29 04:21:26;;;;;;;7.35;5.32;;;;;;;9.10;100.00;162942.72;4990949;28;20081;-68
2022/08/29 04:23:51;;;;;;;13.65;5.63;;;;;;;9.12;100.00;162949.47;4990109;28;20040;-67
2022/08/29 04:26:18;;;;;;;9.15;7.55;;;;;;;9.14;100.00;162953.53;4991273;28;20073;-67
2022/08/29 04:28:44;;;;;;;7.38;5.72;;;;;;;9.14;100.00;162953.53;4989978;28;20371;-67
2022/08/29 04:31:18;;;;;;;9.43;5.07;;;;;;;9.16;100.00;162960.28;4991249;28;20108;-68
2022/08/29 04:33:45;;;;;;;10.60;6.32;;;;;;;9.20;100.00;162969.72;4991345;28;20096;-66
2022/08/29 04:36:12;;;;;;;8.25;6.15;;;;;;;9.26;100.00;162985.91;4989630;28;20062;-66
2022/08/29 04:38:37;;;;;;;11.27;5.05;;;;;;;9.28;100.00;162989.91;4990640;28;20037;-66
2022/08/29 04:41:08;;;;;;;12.05;4.90;;;;;;;9.29;100.00;162992.63;4988886;28;20040;-67
2022/08/29 04:43:33;;;;;;;7.30;4.68;;;;;;;9.30;100.00;162995.34;4990713;28;20334;-67
2022/08/29 04:45:59;;;;;;;16.00;5.97;;;;;;;9.33;100.00;163004.78;4989936;28;20031;-66
2022/08/29 04:48:25;;;;;;;8.80;6.20;;;;;;;9.35;100.00;163008.81;4990936;28;20030;-66
2022/08/29 04:50:55;;;;;;;7.35;4.93;;;;;;;9.43;100.00;163029.06;4989479;28;20044;-67
2022/08/29 04:53:21;;;;;;;5.00;4.40;;;;;;;9.45;100.00;163035.81;4994115;28;20679;-66
2022/08/29 04:55:55;;;;;;;5.38;4.60;;;;;;;9.55;100.00;163061.41;4993315;28;20034;-66
2022/08/29 04:58:21;;;;;;;7.95;4.95;;;;;;;9.64;100.00;163084.38;4995362;28;20034;-66
2022/08/29 05:00:46;;;;;;;6.10;5.55;;;;;;;9.72;100.00;163104.59;4993451;28;20113;-66
2022/08/29 05:03:12;;;;;;;9.10;5.22;;;;;;;9.79;100.00;163123.47;4994808;28;20037;-66
2022/08/29 05:05:37;;;;;;;8.23;6.40;;;;;;;9.90;100.00;163151.81;4993325;28;20046;-66
2022/08/29 05:08:02;;;;;;;8.90;5.72;;;;;;;9.99;100.00;163176.09;4994866;28;20030;-66
2022/08/29 05:10:28;;;;;;;11.88;6.85;;;;;;;10.10;100.00;163205.78;4993311;28;20042;-66
2022/08/29 05:12:53;;;;;;;6.32;5.25;;;;;;;10.20;100.00;163230.06;4994477;28;20026;-66
2022/08/29 05:15:19;;;;;;;10.35;5.45;;;;;;;10.26;100.00;163247.63;4993357;28;20104;-66
2022/08/29 05:17:44;;;;;;;10.95;6.53;;;;;;;10.34;100.00;163266.53;4994622;28;20037;-66
2022/08/29 05:20:10;;;;;;;7.57;6.00;;;;;;;10.40;100.00;163284.09;4993072;28;20038;-66
2022/08/29 05:22:37;;;;;;;9.13;6.05;;;;;;;10.42;100.00;163289.50;4994347;28;20486;-66
2022/08/29 05:25:03;;;;;;;8.50;5.72;;;;;;;10.53;100.00;163316.53;4993036;28;20042;-65
2022/08/29 05:27:29;;;;;;;8.35;5.35;;;;;;;10.60;100.00;163335.41;4993995;28;20359;-67
2022/08/29 05:29:54;;;;;;;8.48;6.40;;;;;;;10.69;100.00;163359.66;4992802;28;20061;-67
2022/08/29 05:32:20;;;;;;;8.95;6.07;;;;;;;10.78;100.00;163384.00;4994655;28;20034;-67
2022/08/29 05:34:46;;;;;;;15.38;8.63;;;;;;;10.88;100.00;163408.28;4992507;28;20113;-66
2022/08/29 05:37:14;;;;;;;11.25;6.13;;;;;;;10.99;100.00;163437.97;4994249;28;20105;-68
2022/08/29 05:39:40;;;;;;;9.43;7.43;;;;;;;11.09;100.00;163465.00;4992790;28;20498;-68
2022/08/29 05:42:07;;;;;;;10.30;7.57;;;;;;;11.16;100.00;163481.19;4993637;28;20057;-68
2022/08/29 05:44:33;;;;;;;11.43;8.50;;;;;;;11.20;100.00;163492.03;4992567;28;20139;-61
2022/08/29 05:46:59;;;;;;;11.73;8.88;;;;;;;11.29;100.00;163514.97;4994173;28;20497;-61
2022/08/29 05:49:25;;;;;;;13.27;8.57;;;;;;;11.38;100.00;163540.63;4992265;28;20140;-61
2022/08/29 05:51:54;;;;;;;11.73;8.05;;;;;;;11.47;100.00;163562.22;4993821;28;20042;-61
2022/08/29 05:54:20;;;;;;;13.55;8.90;;;;;;;11.59;100.00;163594.63;4992584;28;20041;-61
2022/08/29 05:56:46;;;;;;;15.27;9.23;;;;;;;11.68;100.00;163618.94;4993132;28;20413;-61
2022/08/29 05:59:12;;;;;;;17.05;8.23;;;;;;;11.78;100.00;163643.28;4992813;28;20406;-61
2022/08/29 06:01:37;;;;;;;12.45;8.40;;;;;;;11.86;100.00;163664.91;4994114;28;20026;-61
2022/08/29 06:04:03;;;;;;;14.93;8.43;;;;;;;11.95;100.00;163689.16;4991995;28;20041;-61
2022/08/29 06:06:29;;;;;;;14.68;8.13;;;;;;;12.01;100.00;163705.47;4993490;28;20014;-61
2022/08/29 06:08:55;;;;;;;22.50;11.40;;;;;;;12.13;100.00;163735.16;4992293;28;20022;-61
2022/08/29 06:11:25;;;;;;;12.77;8.63;;;;;;;12.22;100.00;163760.84;4993143;28;20022;-60
2022/08/29 06:13:50;;;;;;;18.73;8.65;;;;;;;12.27;100.00;163773.00;4991879;28;20026;-60
2022/08/29 06:16:19;;;;;;;14.20;9.65;;;;;;;12.44;100.00;163816.25;4993640;28;20478;-61
2022/08/29 06:18:45;;;;;;;12.18;8.90;;;;;;;12.52;100.00;163839.22;4991572;28;20026;-60
2022/08/29 06:21:11;;;;;;;14.95;8.65;;;;;;;12.61;100.00;163860.84;4993528;28;20172;-61
2022/08/29 06:23:38;;;;;;;17.27;8.18;;;;;;;12.70;100.00;163886.50;4993363;28;20026;-61
2022/08/29 06:26:04;;;;;;;10.70;7.97;;;;;;;12.85;100.00;163925.72;4992076;28;20038;-61
2022/08/29 06:28:31;;;;;;;13.57;8.50;;;;;;;12.94;100.00;163947.38;4993579;28;20030;-61
2022/08/29 06:31:05;;;;;;;12.85;9.45;;;;;;;12.99;100.00;163962.19;4992035;28;20050;-61
2022/08/29 06:33:30;;;;;;;9.85;7.57;;;;;;;13.09;100.00;163987.91;4993017;28;20042;-61
2022/08/29 06:35:55;;;;;;;14.95;7.55;;;;;;;13.17;100.00;164009.56;4991788;28;20520;-61
2022/08/29 06:38:21;;;;;;;16.48;8.50;;;;;;;13.24;100.00;164027.09;4993348;28;20398;-61
2022/08/29 06:40:46;;;;;;;11.48;8.30;;;;;;;13.29;100.00;164040.59;4991197;28;20038;-61
2022/08/29 06:43:11;;;;;;;9.18;7.38;;;;;;;13.36;100.00;164056.88;4994130;28;20033;-61
2022/08/29 06:45:41;;;;;;;17.30;7.90;;;;;;;13.37;100.00;164059.53;5010035;28;20057;-61
2022/08/29 06:48:07;;;;;;;12.25;8.60;;;;;;;13.37;100.00;164060.91;5008716;28;20026;-61
2022/08/29 06:50:38;;;;;;;11.30;7.82;;;;;;;13.41;100.00;164070.44;4991372;28;20102;-61
2022/08/29 06:53:05;;;;;;;18.85;10.13;;;;;;;13.41;100.00;164071.75;4992834;28;20022;-61
2022/08/29 06:55:30;;;;;;;13.32;7.88;;;;;;;13.43;100.00;164077.19;4990901;28;20042;-61
2022/08/29 06:57:55;;;;;;;17.48;8.90;;;;;;;13.47;100.00;164086.66;4992840;28;20072;-61
2022/08/29 07:00:21;;;;;;;16.23;8.88;;;;;;;13.52;100.00;164100.16;4991521;28;20046;-61
2022/08/29 07:02:46;;;;;;;14.65;8.38;;;;;;;13.59;100.00;164119.09;4992496;28;20086;-60
2022/08/29 07:05:14;;;;;;;12.40;7.75;;;;;;;13.61;100.00;164123.19;4991259;28;20042;-61
2022/08/29 07:07:40;;;;;;;15.18;9.43;;;;;;;13.70;100.00;164146.16;4992508;28;20033;-61
2022/08/29 07:10:06;;;;;;;15.10;7.60;;;;;;;13.80;100.00;164173.22;4991120;28;20096;-61
2022/08/29 07:12:31;;;;;;;18.33;7.22;;;;;;;14.01;100.00;164227.31;4992675;28;20038;-61
2022/08/29 07:14:57;;;;;;;11.85;7.10;;;;;;;14.24;100.00;164289.53;4990448;28;20038;-61
2022/08/29 07:17:22;;;;;;;11.90;7.00;;;;;;;14.41;100.00;164332.78;4992436;28;20022;-61
2022/08/29 07:19:47;;;;;;;17.88;7.70;;;;;;;14.59;100.00;164381.53;4990804;28;20727;-60
2022/08/29 07:22:13;;;;;;;14.20;8.68;;;;;;;14.78;100.00;164430.25;4992360;28;20034;-60
2022/08/29 07:24:38;;;;;;;10.73;7.07;;;;;;;14.90;100.00;164462.78;4990223;28;20089;-61
2022/08/29 07:27:03;;;;;;;11.20;7.88;;;;;;;15.16;100.00;164530.41;4992408;28;20018;-60
2022/08/29 07:29:29;;;;;;;19.58;7.43;;;;;;;15.88;100.00;164717.31;4990597;28;20105;-61
2022/08/29 07:31:54;;;;;;;12.82;6.55;;;;;;;16.57;100.00;164898.81;4992158;28;20084;-61
2022/08/29 07:34:19;;;;;;;8.05;5.95;;;;;;;16.90;100.00;164985.50;4990792;28;20528;-61
2022/08/29 07:36:45;;;;;;;17.98;6.60;;;;;;;16.95;100.00;164999.06;4991873;28;20378;-61
2022/08/29 07:39:17;;;;;;;8.98;5.20;;;;;;;16.94;100.00;164997.75;4990516;28;20038;-61
2022/08/29 07:41:43;;;;;;;12.35;6.55;;;;;;;17.05;100.00;165026.19;4992247;28;20029;-61
2022/08/29 07:44:10;;;;;;;12.30;6.47;;;;;;;17.23;100.00;165072.28;4990989;28;20125;-61
2022/08/29 07:46:35;;;;;;;12.13;5.90;;;;;;;17.71;100.00;165199.66;4991585;28;20381;-61
2022/08/29 07:49:01;;;;;;;9.40;5.53;;;;;;;18.18;100.00;165323.06;4990830;28;20022;-61
2022/08/29 07:51:27;;;;;;;13.10;4.75;;;;;;;18.49;100.00;165403.09;4992285;28;20022;-61
2022/08/29 07:53:53;;;;;;;12.02;4.93;;;;;;;18.71;100.00;165462.75;4990522;28;20438;-61
2022/08/29 07:56:22;;;;;;;16.20;5.47;;;;;;;18.67;100.00;165450.56;4992043;28;20019;-61
2022/08/29 07:58:48;;;;;;;10.15;5.20;;;;;;;18.55;100.00;165419.34;4990517;28;20088;-61
2022/08/29 08:01:14;;;;;;;14.25;5.07;;;;;;;18.56;100.00;165422.06;4991673;28;20019;-61
2022/08/29 08:03:41;;;;;;;17.83;5.25;;;;;;;18.15;100.00;165313.56;4991629;28;20033;-61
2022/08/29 08:06:07;;;;;;;18.40;5.45;;;;;;;18.13;100.00;165308.19;4990391;28;20137;-61
2022/08/29 08:08:32;;;;;;;10.00;5.07;;;;;;;18.16;100.00;165316.28;4991281;28;20049;-61
2022/08/29 08:10:58;;;;;;;13.00;5.55;;;;;;;18.32;100.00;165359.69;4990498;28;20457;-61
2022/08/29 08:13:23;;;;;;;14.40;5.75;;;;;;;18.29;100.00;165351.53;4991842;28;20497;-61
2022/08/29 08:15:49;;;;;;;17.33;6.22;;;;;;;18.07;100.00;165294.59;4989764;28;20049;-61
2022/08/29 08:18:15;;;;;;;12.48;6.20;;;;;;;17.98;100.00;165270.22;4991725;28;20441;-61
2022/08/29 08:20:47;;;;;;;14.13;5.72;;;;;;;17.58;100.00;165165.75;4990115;28;20038;-61
2022/08/29 08:23:13;;;;;;;13.10;6.22;;;;;;;17.37;100.00;165110.22;4991544;28;20034;-61
2022/08/29 08:25:38;;;;;;;14.20;7.88;;;;;;;17.34;100.00;165102.06;4990040;28;20122;-61
2022/08/29 08:28:03;;;;;;;12.65;4.95;;;;;;;17.49;100.00;165140.03;4994260;28;20034;-61
2022/08/29 08:30:29;;;;;;;12.48;6.25;;;;;;;17.74;100.00;165207.81;4993497;28;20042;-61
2022/08/29 08:32:54;;;;;;;11.20;5.78;;;;;;;17.90;100.00;165248.47;4995753;28;20037;-61
2022/08/29 08:35:19;;;;;;;10.30;5.18;;;;;;;18.01;100.00;165277.00;4994252;28;20037;-61
2022/08/29 08:37:45;;;;;;;13.88;6.40;;;;;;;18.10;100.00;165300.03;4995360;28;20019;-61
2022/08/29 08:40:21;;;;;;;7.60;4.47;;;;;;;17.87;100.00;165241.66;4994113;28;20046;-61
2022/08/29 08:42:49;;;;;;;11.10;5.28;;;;;;;17.98;100.00;165268.84;4995404;28;20026;-61
2022/08/29 08:45:19;;;;;;;7.33;4.10;;;;;;;18.13;100.00;165308.19;4992662;28;20069;-61
2022/08/29 08:47:58;;;;;;;10.02;4.00;;;;;;;18.32;100.00;165359.69;5004212;28;20022;-61
2022/08/29 08:50:47;;;;;;;12.02;5.07;;;;;;;18.63;100.00;165441.06;5013497;28;20055;-61
2022/08/29 08:53:21;;;;;;;18.27;4.97;;;;;;;18.77;100.00;165476.31;4999281;28;20030;-61
2022/08/29 08:55:53;;;;;;;11.20;4.45;;;;;;;18.64;100.00;165443.78;4993466;28;20039;-61
2022/08/29 08:58:37;;;;;;;9.25;4.72;;;;;;;18.37;100.00;165373.22;4994863;28;20120;-61
2022/08/29 09:01:37;;;;;;;12.18;5.65;;;;;;;18.59;100.00;165430.19;5005086;28;20505;-61
2022/08/29 09:04:09;;;;;;;11.55;4.68;;;;;;;18.59;100.00;165430.19;5014203;28;20026;-61
2022/08/29 09:07:00;;;;;;;11.75;5.60;;;;;;;18.65;100.00;165446.44;5012458;28;20038;-61
2022/08/29 09:09:43;;;;;;;13.27;4.93;;;;;;;18.62;100.00;165438.34;5014049;28;20113;-61
2022/08/29 09:12:21;;;;;;;11.15;5.32;;;;;;;18.68;100.00;165454.59;5013226;28;20112;-61
2022/08/29 09:15:06;;;;;;;10.40;5.63;;;;;;;18.76;100.00;165474.97;5012841;28;20030;-61
2022/08/29 09:17:48;;;;;;;9.55;3.38;;;;;;;19.12;100.00;165568.59;5014424;28;20030;-61
2022/08/29 09:20:24;;;;;;;9.68;4.57;;;;;;;19.23;100.00;165598.44;5012965;28;20069;-61
2022/08/29 09:23:02;;;;;;;10.15;4.15;;;;;;;19.10;100.00;165564.53;5013730;28;20044;-61
2022/08/29 09:25:29;;;;;;;13.00;4.38;;;;;;;19.32;100.00;165622.84;5012802;28;20034;-61
2022/08/29 09:27:59;;;;;;;15.18;5.07;;;;;;;19.40;100.00;165641.88;5014340;28;20477;-61
2022/08/29 09:30:29;;;;;;;16.60;4.25;;;;;;;19.56;100.00;165685.25;5012303;28;20050;-61
2022/08/29 09:33:02;;;;;;;11.82;4.25;;;;;;;19.85;100.00;165761.28;5014155;28;20045;-61
2022/08/29 09:35:41;;;;;;;19.65;5.13;;;;;;;20.08;100.00;165821.00;5012658;28;20042;-61
2022/08/29 09:38:15;;;;;;;8.15;3.17;;;;;;;20.10;100.00;165826.44;5013237;28;20108;-61
2022/08/29 09:40:58;;;;;;;18.20;4.65;;;;;;;19.96;100.00;165791.16;5012424;28;20037;-61
2022/08/29 09:43:46;;;;;;;9.15;3.55;;;;;;;19.73;100.00;165730.03;5013813;28;20026;-61
2022/08/29 09:46:21;;;;;;;11.20;3.80;;;;;;;19.84;100.00;165758.63;5012433;28;20046;-61
2022/08/29 09:48:51;;;;;;;13.43;4.60;;;;;;;20.11;100.00;165829.16;5012215;28;20038;-61
2022/08/29 09:51:23;;;;;;;10.38;4.50;;;;;;;19.90;100.00;165773.50;5014032;28;20384;-61
2022/08/29 09:53:49;;;;;;;8.73;3.95;;;;;;;20.08;100.00;165821.00;5011895;28;20022;-61
2022/08/29 09:56:25;;;;;;;8.48;2.95;;;;;;;19.96;100.00;165791.16;5013763;28;20025;-61
2022/08/29 09:59:00;;;;;;;12.32;3.58;;;;;;;19.70;100.00;165720.53;5011984;28;20018;-61
2022/08/29 10:01:27;;;;;;;6.47;3.10;;;;;;;19.75;100.00;165734.13;5004873;28;20153;-61
2022/08/29 10:03:58;;;;;;;9.63;3.67;;;;;;;20.03;100.00;165807.44;5007015;28;20068;-61
2022/08/29 10:06:31;;;;;;;9.23;3.63;;;;;;;20.36;100.00;165895.66;5013489;28;20038;-61
2022/08/29 10:08:58;;;;;;;11.05;3.28;;;;;;;20.36;100.00;165895.66;4999382;28;20034;-61
2022/08/29 10:11:48;;;;;;;21.85;4.28;;;;;;;20.97;100.00;166054.53;4993108;28;20033;-61
2022/08/29 10:14:29;;;;;;;8.70;3.45;;;;;;;21.44;100.00;166178.16;4996515;28;20042;-61
2022/08/29 10:18:19;;;;;;;7.43;2.65;;;;;;;21.59;100.00;166218.97;5010682;28;20026;-61
2022/08/29 10:19:47;;;;;;;9.27;2.35;;;;;;;21.96;100.00;166315.38;4991762;28;20042;-62
2022/08/29 10:22:29;;;;;;;6.20;2.78;;;;;;;21.95;100.00;166312.66;4993208;28;20026;-61
2022/08/29 10:25:07;;;;;;;9.57;2.30;;;;;;;22.17;100.00;166372.44;4989132;28;20092;-61
2022/08/29 10:27:42;;;;;;;4.65;2.38;;;;;;;22.11;100.00;166356.13;4988785;28;20026;-61
2022/08/29 10:30:15;;;;;;;6.93;2.38;;;;;;;21.91;100.00;166301.81;4991422;28;20704;-61
2022/08/29 10:33:14;;;;;;;5.97;2.83;;;;;;;21.62;100.00;166225.75;4992909;28;20030;-61
2022/08/29 10:35:48;;;;;;;5.47;2.83;;;;;;;21.45;100.00;166180.81;4991227;28;20080;-61
2022/08/29 10:38:21;;;;;;;7.75;2.17;;;;;;;21.63;100.00;166228.47;4992727;28;20405;-61
2022/08/29 10:40:57;;;;;;;4.00;1.75;;;;;;;21.78;100.00;166269.16;4989511;28;20046;-61
2022/08/29 10:43:39;;;;;;;21.50;2.80;;;;;;;21.78;100.00;166269.16;4993004;28;20034;-61
2022/08/29 10:46:27;;;;;;;4.78;2.15;;;;;;;21.99;100.00;166324.88;4991786;28;20034;-61
2022/08/29 10:49:06;;;;;;;8.52;2.45;;;;;;;22.06;100.00;166342.56;4991684;28;20037;-61
2022/08/29 10:51:50;;;;;;;5.72;2.00;;;;;;;21.96;100.00;166315.38;4996721;28;20485;-61
2022/08/29 10:54:48;;;;;;;7.80;1.90;;;;;;;21.98;100.00;166322.16;4993844;28;20088;-61
2022/08/29 10:57:30;;;;;;;4.50;2.10;;;;;;;21.93;100.00;166307.25;4971958;28;20041;-61
2022/08/29 11:00:06;;;;;;;6.75;2.50;;;;;;;21.87;100.00;166293.63;4991368;28;20057;-61
2022/08/29 11:02:51;;;;;;;5.22;1.95;;;;;;;22.07;100.00;166345.28;4992640;28;20494;-61
2022/08/29 11:05:34;;;;;;;5.80;2.13;;;;;;;22.07;100.00;166345.28;4991417;28;20046;-61
2022/08/29 11:08:08;;;;;;;4.90;2.75;;;;;;;21.92;100.00;166305.88;4992597;28;20050;-61
2022/08/29 11:10:42;;;;;;;9.38;2.38;;;;;;;22.21;100.00;166381.94;4991178;28;20133;-61
2022/08/29 11:13:28;;;;;;;5.45;1.98;;;;;;;22.40;100.00;166432.28;4992699;28;20556;-61
2022/08/29 11:16:08;;;;;;;11.20;2.97;;;;;;;22.56;100.00;166473.03;4991085;28;20136;-61
2022/08/29 11:18:57;;;;;;;3.05;2.22;;;;;;;22.70;100.00;166511.09;4992348;28;20034;-62
2022/08/29 11:21:37;;;;;;;7.10;3.03;;;;;;;22.13;100.00;166361.59;4990493;28;20494;-62
2022/08/29 11:24:04;;;;;;;3.15;2.00;;;;;;;22.34;100.00;166415.91;4991018;28;20069;-62
2022/08/29 11:26:38;;;;;;;5.68;2.15;;;;;;;22.68;100.00;166505.63;4992496;28;20030;-62